Wednesday, October 17, 2018, 12:07 PM EDT
Back to Local

KCQX, Chatham Municipal Airport

Location: Chatham, MA, United States Lat: 41.683
Local Time: 12:07 PM EDT (16:07 GMT) Lon: -70
Time Zone: US/Eastern Elev: 68 ft

Show me the last for .
Show Coded

Time T Td Feel RH Dir Speed Gust Alt SLP Vis Weather Sky Remarks
2018-10-17 11:52 61 41 - 47 240° 12 28 29.87 29.87 10 CLR None
2018-10-17 10:52 60 45 - 57 230° 12 22 29.89 29.89 10 CLR None
2018-10-17 09:52 58 46 - 64 230° 14 24 29.92 29.92 10 FEW034 None
2018-10-17 08:52 54 42 - 64 Variable 5 - 29.93 29.93 10 FEW038 None
2018-10-17 07:52 47 39 45 73 260° 5 - 29.95 29.95 10 CLR 6-hr Min Temp (8am): 41.0°F
6-hr Max Temp (8am): 46.9°F
2018-10-17 06:52 43 37 41 79 270° 3 - 29.96 29.96 10 CLR None
2018-10-17 05:52 44 37 43 76 Variable 3 - 29.97 29.98 0 CLR None
2018-10-17 04:52 42 37 40 82 270° 3 - 29.99 29.99 10 CLR None
2018-10-17 03:52 41 36 - 82 - Calm - 29.99 29.99 10 CLR None
2018-10-17 02:52 42 37 - 82 - Calm - 30.00 30.01 10 CLR None
2018-10-17 01:52 44 37 - 76 - Calm - 30.02 30.02 10 CLR 6-hr Min Temp (2am): 44.1°F
6-hr Max Temp (2am): 48.9°F
2018-10-16 23:52 47 38 45 70 290° 5 - 30.04 30.04 10 CLR None
2018-10-16 22:52 47 38 46 70 270° 3 - 30.04 30.04 10 CLR None
2018-10-16 21:52 48 38 47 67 Variable 3 - 30.03 30.03 10 CLR None
2018-10-16 20:52 48 38 47 67 260° 3 - 30.03 30.03 10 CLR None
2018-10-16 19:52 49 37 47 63 260° 5 - 30.02 30.02 10 CLR 6-hr Min Temp (8pm): 48.0°F
6-hr Max Temp (8pm): 57.9°F
2018-10-16 18:52 48 37 46 65 Variable 5 - 30.01 30.01 10 CLR None
2018-10-16 17:52 50 37 49 60 240° 3 - 30.01 30.01 10 CLR None
2018-10-16 16:52 52 37 - 56 Variable 6 - 30.01 30.01 10 CLR None
2018-10-16 15:52 55 37 - 50 Variable 6 - 30.00 30.01 10 CLR None
2018-10-16 14:52 57 36 - 45 Variable 6 - 30.01 30.01 10 CLR None
2018-10-16 13:52 56 34 - 43 - - - 30.01 30.02 10 CLR 6-hr Min Temp (2pm): 48.0°F
6-hr Max Temp (2pm): 55.9°F
2018-10-16 12:52 55 35 - 46 Variable 3 - 30.03 30.03 10 CLR None

Support USWX by starting your Amazon purchase here.